ZSSAS EDDG-EDDG
Flight info
| Callsign | ZSSAS |
|---|---|
| Flight time | 0h 12m |
| Altitude | 5000 |
| Route | VFR CIRCUITS AND RADIO CALLS PRACTICE |
| Aircraft | P28A/L-VGD/A |
Departure
| Time | 2026-04-08 09:43 |
|---|---|
| Airport | Münster Osnabrück Airport (EDDG) |
Arrival
| Time | 2026-04-08 09:56 |
|---|---|
| Airport | Münster Osnabrück Airport (EDDG) |
| Time | Latitude | Longitude | Altitude | Speed | Heading |
|---|---|---|---|---|---|
| 2026-04-08 09:36 | 52.13152 | 7.68309 | 153 ft | 0 kts | 270° |
| 2026-04-08 09:39 | 52.13152 | 7.68301 | 153 ft | 3 kts | 286° |
| 2026-04-08 09:40 | 52.13158 | 7.68276 | 153 ft | 1 kts | 289° |
| 2026-04-08 09:40 | 52.13174 | 7.68283 | 153 ft | 6 kts | 62° |
| 2026-04-08 09:40 | 52.13208 | 7.68315 | 153 ft | 7 kts | 343° |
| 2026-04-08 09:40 | 52.13258 | 7.68297 | 153 ft | 4 kts | 354° |
| 2026-04-08 09:41 | 52.13273 | 7.68294 | 153 ft | 0 kts | 353° |
| 2026-04-08 09:41 | 52.13277 | 7.68293 | 153 ft | 0 kts | 353° |
| 2026-04-08 09:41 | 52.13331 | 7.68273 | 153 ft | 15 kts | 344° |
| 2026-04-08 09:42 | 52.13422 | 7.68308 | 153 ft | 15 kts | 53° |
| 2026-04-08 09:42 | 52.13503 | 7.68667 | 156 ft | 63 kts | 71° |
| 2026-04-08 09:42 | 52.13686 | 7.69534 | 233 ft | 92 kts | 71° |
| 2026-04-08 09:42 | 52.13891 | 7.70601 | 387 ft | 103 kts | 72° |
| 2026-04-08 09:43 | 52.14249 | 7.71600 | 627 ft | 103 kts | 44° |
| 2026-04-08 09:43 | 52.14873 | 7.72161 | 833 ft | 106 kts | 13° |
| 2026-04-08 09:43 | 52.15600 | 7.72158 | 1074 ft | 104 kts | 348° |
| 2026-04-08 09:43 | 52.16259 | 7.71707 | 1172 ft | 106 kts | 330° |
| 2026-04-08 09:44 | 52.16753 | 7.70839 | 1215 ft | 110 kts | 285° |
| 2026-04-08 09:44 | 52.16644 | 7.69610 | 1260 ft | 107 kts | 249° |
| 2026-04-08 09:44 | 52.16409 | 7.68480 | 1249 ft | 106 kts | 257° |
| 2026-04-08 09:44 | 52.16257 | 7.67299 | 1216 ft | 107 kts | 257° |
| 2026-04-08 09:45 | 52.16087 | 7.66103 | 1129 ft | 108 kts | 258° |
| 2026-04-08 09:45 | 52.15958 | 7.64912 | 1090 ft | 105 kts | 261° |
| 2026-04-08 09:45 | 52.15834 | 7.63770 | 1073 ft | 101 kts | 260° |
| 2026-04-08 09:45 | 52.15713 | 7.62648 | 1044 ft | 101 kts | 260° |
| 2026-04-08 09:46 | 52.15589 | 7.61516 | 996 ft | 101 kts | 260° |
| 2026-04-08 09:46 | 52.15442 | 7.60407 | 989 ft | 98 kts | 249° |
| 2026-04-08 09:46 | 52.15045 | 7.59558 | 984 ft | 96 kts | 214° |
| 2026-04-08 09:46 | 52.14390 | 7.59449 | 852 ft | 99 kts | 158° |
| 2026-04-08 09:47 | 52.13792 | 7.60022 | 753 ft | 97 kts | 145° |
| 2026-04-08 09:47 | 52.13295 | 7.60691 | 747 ft | 89 kts | 137° |
| 2026-04-08 09:47 | 52.12916 | 7.61412 | 787 ft | 75 kts | 118° |
| 2026-04-08 09:47 | 52.12761 | 7.62305 | 774 ft | 96 kts | 106° |
| 2026-04-08 09:48 | 52.12601 | 7.63349 | 671 ft | 95 kts | 99° |
| 2026-04-08 09:48 | 52.12593 | 7.64415 | 527 ft | 95 kts | 78° |
| 2026-04-08 09:48 | 52.12819 | 7.65457 | 446 ft | 99 kts | 68° |
| 2026-04-08 09:48 | 52.13030 | 7.66443 | 277 ft | 84 kts | 71° |
| 2026-04-08 09:49 | 52.13206 | 7.67265 | 164 ft | 68 kts | 71° |
| 2026-04-08 09:49 | 52.13343 | 7.67910 | 155 ft | 66 kts | 71° |
| 2026-04-08 09:49 | 52.13531 | 7.68833 | 194 ft | 99 kts | 70° |
| 2026-04-08 09:49 | 52.13779 | 7.69951 | 326 ft | 110 kts | 70° |
| 2026-04-08 09:50 | 52.14146 | 7.71011 | 566 ft | 108 kts | 48° |
| 2026-04-08 09:50 | 52.14786 | 7.71596 | 810 ft | 106 kts | 13° |
| 2026-04-08 09:50 | 52.15523 | 7.71648 | 1046 ft | 105 kts | 352° |
| 2026-04-08 09:50 | 52.16199 | 7.71182 | 1220 ft | 110 kts | 323° |
| 2026-04-08 09:51 | 52.16625 | 7.70190 | 1315 ft | 108 kts | 287° |
| 2026-04-08 09:51 | 52.16615 | 7.68950 | 1281 ft | 111 kts | 256° |
| 2026-04-08 09:51 | 52.16433 | 7.67755 | 1269 ft | 107 kts | 256° |
| 2026-04-08 09:51 | 52.16248 | 7.66592 | 1230 ft | 105 kts | 255° |
| 2026-04-08 09:52 | 52.16044 | 7.65462 | 1210 ft | 104 kts | 253° |
| 2026-04-08 09:52 | 52.15825 | 7.64342 | 1193 ft | 103 kts | 252° |
| 2026-04-08 09:52 | 52.15583 | 7.63244 | 1172 ft | 102 kts | 250° |
| 2026-04-08 09:52 | 52.15300 | 7.62177 | 1132 ft | 104 kts | 245° |
| 2026-04-08 09:53 | 52.14964 | 7.61160 | 1087 ft | 101 kts | 228° |
| 2026-04-08 09:53 | 52.14381 | 7.60576 | 1007 ft | 97 kts | 195° |
| 2026-04-08 09:53 | 52.13718 | 7.60506 | 859 ft | 95 kts | 175° |
| 2026-04-08 09:53 | 52.13124 | 7.60757 | 821 ft | 82 kts | 150° |
| 2026-04-08 09:54 | 52.12688 | 7.61369 | 737 ft | 84 kts | 129° |
| 2026-04-08 09:54 | 52.12465 | 7.62261 | 625 ft | 91 kts | 100° |
| 2026-04-08 09:54 | 52.12421 | 7.63344 | 542 ft | 95 kts | 85° |
| 2026-04-08 09:54 | 52.12595 | 7.64386 | 456 ft | 97 kts | 68° |
| 2026-04-08 09:55 | 52.12823 | 7.65436 | 358 ft | 98 kts | 73° |
| 2026-04-08 09:55 | 52.13026 | 7.66411 | 251 ft | 84 kts | 71° |
| 2026-04-08 09:55 | 52.13202 | 7.67246 | 167 ft | 70 kts | 71° |
| 2026-04-08 09:55 | 52.13342 | 7.67912 | 155 ft | 52 kts | 71° |
| 2026-04-08 09:56 | 52.13388 | 7.68129 | 153 ft | 11 kts | 71° |
| 2026-04-08 09:56 | 52.13374 | 7.68249 | 153 ft | 9 kts | 141° |
| 2026-04-08 09:56 | 52.13327 | 7.68281 | 153 ft | 6 kts | 162° |